createdAt,value
2022-09-07T00:00:53.035Z,62.38
2022-09-07T00:03:20.962Z,62.44
2022-09-07T00:05:51.011Z,62.09
2022-09-07T00:08:20.751Z,62.11
2022-09-07T00:10:56.055Z,62.12
2022-09-07T00:13:25.745Z,62.21
2022-09-07T00:15:53.255Z,61.93
2022-09-07T00:18:20.878Z,62.07
2022-09-07T00:20:48.021Z,62.47
2022-09-07T00:23:15.014Z,62.25
2022-09-07T00:25:42.106Z,62.32
2022-09-07T00:28:10.050Z,62.13
2022-09-07T00:30:43.026Z,61.61
2022-09-07T00:33:10.517Z,62.00
2022-09-07T00:35:41.743Z,61.98
2022-09-07T00:38:09.068Z,61.83
2022-09-07T00:40:36.709Z,62.22
2022-09-07T00:43:04.734Z,61.93
2022-09-07T00:45:32.274Z,60.78
2022-09-07T00:48:13.743Z,61.95
2022-09-07T00:50:46.660Z,61.51
2022-09-07T00:53:32.141Z,61.14
2022-09-07T00:56:00.191Z,60.99
2022-09-07T00:58:31.254Z,61.54
2022-09-07T01:00:58.454Z,61.36
2022-09-07T01:03:32.198Z,61.38
2022-09-07T01:06:02.346Z,61.25
2022-09-07T01:08:30.786Z,61.11
2022-09-07T01:11:00.190Z,61.29
2022-09-07T01:13:30.330Z,61.33
2022-09-07T01:16:20.811Z,61.39
2022-09-07T01:19:15.220Z,61.23
2022-09-07T01:22:18.516Z,61.17
2022-09-07T01:24:45.675Z,61.73
2022-09-07T01:27:49.277Z,61.88
2022-09-07T01:30:19.425Z,61.96
2022-09-07T01:33:17.387Z,61.79
2022-09-07T01:36:02.585Z,61.57
2022-09-07T01:38:47.278Z,62.08
2022-09-07T01:41:49.212Z,61.80
2022-09-07T01:44:27.635Z,61.94
2022-09-07T01:47:02.616Z,61.80
2022-09-07T01:49:49.985Z,62.54
2022-09-07T01:52:41.211Z,62.51
2022-09-07T01:55:19.449Z,62.81
2022-09-07T01:57:53.941Z,62.67
2022-09-07T02:00:21.229Z,62.77
2022-09-07T02:03:04.109Z,62.71
2022-09-07T02:05:36.940Z,63.17
2022-09-07T02:08:15.252Z,63.51
2022-09-07T02:10:50.716Z,63.55
2022-09-07T02:16:24.743Z,63.75
2022-09-07T02:18:59.237Z,63.72
2022-09-07T02:21:36.335Z,64.36
2022-09-07T02:24:18.359Z,64.12
2022-09-07T02:26:51.282Z,64.57
2022-09-07T02:29:18.281Z,64.59
2022-09-07T02:31:45.359Z,64.07
2022-09-07T02:34:12.601Z,64.33
2022-09-07T02:36:45.993Z,64.04
2022-09-07T02:39:13.542Z,64.33
2022-09-07T02:41:44.157Z,64.02
2022-09-07T02:44:23.508Z,63.97
2022-09-07T02:47:20.963Z,63.83
2022-09-07T02:50:13.204Z,64.24
2022-09-07T02:53:07.729Z,64.23
2022-09-07T02:55:56.127Z,64.19
2022-09-07T02:58:33.171Z,64.36
2022-09-07T03:01:27.911Z,64.33
2022-09-07T03:04:05.948Z,64.41
2022-09-07T03:06:38.690Z,64.35
2022-09-07T03:09:11.592Z,64.87
2022-09-07T03:11:39.460Z,64.24
2022-09-07T03:14:13.234Z,63.69
2022-09-07T03:16:40.342Z,64.05
2022-09-07T03:19:07.428Z,64.08
2022-09-07T03:21:34.472Z,63.66
2022-09-07T03:24:01.940Z,64.08
2022-09-07T03:26:29.084Z,63.50
2022-09-07T03:28:56.691Z,64.09
2022-09-07T03:31:23.935Z,64.27
2022-09-07T03:33:51.173Z,63.75
2022-09-07T03:36:18.358Z,64.33
2022-09-07T03:38:45.709Z,64.34
2022-09-07T03:41:13.009Z,64.01
2022-09-07T03:43:39.991Z,64.57
2022-09-07T03:46:08.308Z,64.36
2022-09-07T03:48:35.677Z,64.13
2022-09-07T03:51:11.205Z,64.05
2022-09-07T03:53:44.359Z,64.71
2022-09-07T03:56:16.409Z,64.78
2022-09-07T03:58:43.412Z,64.58
2022-09-07T04:01:18.044Z,64.76
2022-09-07T04:03:46.335Z,64.14
2022-09-07T04:06:19.517Z,63.72
2022-09-07T04:08:47.009Z,63.98
2022-09-07T04:11:17.058Z,64.12
2022-09-07T04:13:46.834Z,64.31
2022-09-07T04:16:23.228Z,64.00
2022-09-07T04:18:51.586Z,63.94
2022-09-07T04:21:18.952Z,64.39
2022-09-07T04:23:46.594Z,64.07
2022-09-07T04:26:15.083Z,63.96
2022-09-07T04:28:42.320Z,63.42
2022-09-07T04:31:09.703Z,63.73
2022-09-07T04:33:36.864Z,61.38
2022-09-07T04:36:04.440Z,54.59
2022-09-07T04:38:31.843Z,49.76
2022-09-07T04:41:00.868Z,45.50
2022-09-07T04:43:29.460Z,42.95
2022-09-07T04:45:56.778Z,40.29
2022-09-07T04:48:24.330Z,37.92
2022-09-07T04:50:52.391Z,35.92
2022-09-07T04:53:19.990Z,34.88
2022-09-07T04:55:47.145Z,33.86
2022-09-07T04:58:14.512Z,34.65
2022-09-07T05:00:41.754Z,35.55
2022-09-07T05:03:08.851Z,34.95
2022-09-07T05:05:39.169Z,33.15
2022-09-07T05:08:06.548Z,32.42
2022-09-07T05:10:33.750Z,33.62
2022-09-07T05:13:01.042Z,33.83
2022-09-07T05:15:31.377Z,32.70
2022-09-07T05:17:58.472Z,30.95
2022-09-07T05:20:25.564Z,30.73
2022-09-07T05:22:59.686Z,31.01
2022-09-07T05:25:29.158Z,32.96
2022-09-07T05:27:56.285Z,34.69
2022-09-07T05:33:10.854Z,37.53
2022-09-07T05:35:38.054Z,38.29
2022-09-07T05:38:05.246Z,38.99
2022-09-07T05:40:38.547Z,39.27
2022-09-07T05:43:10.037Z,40.27
2022-09-07T05:45:37.194Z,40.54
2022-09-07T05:48:04.394Z,40.87
2022-09-07T05:50:31.532Z,40.87
2022-09-07T05:53:06.928Z,40.64
2022-09-07T05:55:39.423Z,40.32
2022-09-07T05:58:06.706Z,39.15
2022-09-07T06:00:33.791Z,39.23
2022-09-07T06:03:01.127Z,39.97
2022-09-07T06:05:28.409Z,40.93
2022-09-07T06:12:30.418Z,39.47
2022-09-07T06:14:57.508Z,37.46
2022-09-07T06:17:24.568Z,36.31
2022-09-07T06:19:51.704Z,33.76
2022-09-07T06:22:18.883Z,34.41
2022-09-07T06:24:46.077Z,35.08
2022-09-07T06:27:13.143Z,35.10
2022-09-07T06:29:40.089Z,35.26
2022-09-07T06:34:54.365Z,35.42
2022-09-07T06:37:21.505Z,33.59
2022-09-07T06:39:49.614Z,30.10
2022-09-07T06:42:16.907Z,28.15
2022-09-07T06:44:44.770Z,27.07
2022-09-07T06:47:12.205Z,26.38
2022-09-07T06:49:39.300Z,30.26
2022-09-07T06:52:06.637Z,27.60
2022-09-07T06:57:20.859Z,27.91
2022-09-07T06:59:47.959Z,27.71
2022-09-07T07:02:15.179Z,27.05
2022-09-07T07:04:42.218Z,27.56
2022-09-07T07:07:12.651Z,27.04
2022-09-07T07:09:40.972Z,25.68
2022-09-07T07:12:09.007Z,25.73
2022-09-07T07:14:38.423Z,24.92
2022-09-07T07:17:08.348Z,23.47
2022-09-07T07:19:35.730Z,24.10
2022-09-07T07:22:18.610Z,24.25
2022-09-07T07:24:49.976Z,24.54
2022-09-07T07:27:17.699Z,24.35
2022-09-07T07:29:45.473Z,25.31
2022-09-07T07:32:12.552Z,26.11
2022-09-07T07:34:39.616Z,27.26
2022-09-07T07:37:06.885Z,27.55
2022-09-07T07:42:21.472Z,28.92
2022-09-07T07:44:48.824Z,28.58
2022-09-07T07:47:16.049Z,27.61
2022-09-07T07:49:45.347Z,26.69
2022-09-07T07:54:59.531Z,25.33
2022-09-07T07:57:26.573Z,25.50
2022-09-07T07:59:53.626Z,25.96
2022-09-07T08:02:20.817Z,25.11
2022-09-07T08:04:48.413Z,23.77
2022-09-07T08:07:19.733Z,24.13
2022-09-07T08:09:48.377Z,25.10
2022-09-07T08:12:20.199Z,26.66
2022-09-07T08:14:48.453Z,27.36
2022-09-07T08:17:17.571Z,28.41
2022-09-07T08:19:45.273Z,29.10
2022-09-07T08:22:13.329Z,29.90
2022-09-07T08:24:40.666Z,29.71
2022-09-07T08:27:07.952Z,29.83
2022-09-07T08:29:35.734Z,29.28
2022-09-07T08:32:05.156Z,27.83
2022-09-07T08:34:32.785Z,26.58
2022-09-07T08:36:59.759Z,26.28
2022-09-07T08:39:26.854Z,26.26
2022-09-07T08:42:31.978Z,26.34
2022-09-07T08:45:27.662Z,27.16
2022-09-07T08:47:54.705Z,26.78
2022-09-07T08:50:52.072Z,26.35
2022-09-07T08:53:21.057Z,25.25
2022-09-07T08:56:12.199Z,24.32
2022-09-07T08:58:49.875Z,24.11
2022-09-07T09:01:38.801Z,22.85
2022-09-07T09:04:27.507Z,23.57
2022-09-07T09:07:31.901Z,25.51
2022-09-07T09:10:04.989Z,26.44
2022-09-07T09:12:52.381Z,27.75
2022-09-07T09:15:45.147Z,28.02
2022-09-07T09:18:35.338Z,29.95
2022-09-07T09:21:03.127Z,30.85
2022-09-07T09:23:43.701Z,31.40
2022-09-07T09:26:13.888Z,32.15
2022-09-07T09:28:40.913Z,31.70
2022-09-07T09:31:36.188Z,30.89
2022-09-07T09:34:06.078Z,31.26
2022-09-07T09:37:01.023Z,31.44
2022-09-07T09:39:38.292Z,31.89
2022-09-07T09:42:11.434Z,32.48
2022-09-07T09:44:41.552Z,32.26
2022-09-07T09:47:33.196Z,31.24
2022-09-07T09:53:32.900Z,30.73
2022-09-07T09:56:05.197Z,30.95
2022-09-07T10:04:34.931Z,30.68
2022-09-07T10:07:15.986Z,31.07
2022-09-07T10:09:52.389Z,31.56
2022-09-07T10:12:33.001Z,32.30
2022-09-07T10:15:02.067Z,32.65
2022-09-07T10:17:42.540Z,34.00
2022-09-07T10:20:21.406Z,34.51
2022-09-07T10:22:54.534Z,35.00
2022-09-07T10:25:33.262Z,35.45
2022-09-07T10:28:23.921Z,36.06
2022-09-07T10:30:59.784Z,36.52
2022-09-07T10:37:01.591Z,37.23
2022-09-07T10:39:35.852Z,37.23
2022-09-07T10:42:25.244Z,37.82
2022-09-07T10:44:55.309Z,38.31
2022-09-07T10:47:47.061Z,38.64
2022-09-07T10:50:30.065Z,39.50
2022-09-07T10:53:39.369Z,39.42
2022-09-07T10:56:10.325Z,41.04
2022-09-07T10:59:02.170Z,41.81
2022-09-07T11:02:00.103Z,42.90
2022-09-07T11:04:49.336Z,43.60
2022-09-07T11:07:28.431Z,43.87
2022-09-07T11:10:08.032Z,43.95
2022-09-07T11:12:40.537Z,45.82
2022-09-07T11:15:10.772Z,47.17
2022-09-07T11:17:52.618Z,47.25
2022-09-07T11:20:32.433Z,48.23
2022-09-07T11:23:07.205Z,49.63
2022-09-07T11:25:41.054Z,50.83
2022-09-07T11:28:22.147Z,51.37
2022-09-07T11:31:00.220Z,52.10
2022-09-07T11:33:33.748Z,52.48
2022-09-07T11:36:12.062Z,51.99
2022-09-07T11:38:54.661Z,53.76
2022-09-07T11:41:41.994Z,53.92
2022-09-07T11:44:25.149Z,55.68
2022-09-07T11:46:55.867Z,55.80
2022-09-07T11:49:26.079Z,55.35
2022-09-07T11:52:14.267Z,56.73
2022-09-07T11:54:46.075Z,56.20
2022-09-07T11:57:16.308Z,56.50
2022-09-07T12:00:08.623Z,55.73
2022-09-07T12:03:01.317Z,57.00
2022-09-07T12:06:15.117Z,56.24
2022-09-07T12:09:17.481Z,55.64
2022-09-07T12:12:20.678Z,56.58
2022-09-07T12:14:57.694Z,57.62
2022-09-07T12:18:02.695Z,58.21
2022-09-07T12:20:47.313Z,57.22
2022-09-07T12:23:17.300Z,59.55
2022-09-07T12:25:46.781Z,59.38
2022-09-07T12:28:25.834Z,60.96
2022-09-07T12:31:15.392Z,61.50
2022-09-07T12:33:43.970Z,62.42
2022-09-07T12:36:26.400Z,62.08
2022-09-07T12:39:19.449Z,61.49
2022-09-07T12:41:49.778Z,62.12
2022-09-07T12:44:28.559Z,62.07
2022-09-07T12:47:00.125Z,62.37
2022-09-07T12:49:37.998Z,63.08
2022-09-07T12:52:39.717Z,63.57
2022-09-07T12:56:15.580Z,62.96
2022-09-07T12:58:38.421Z,64.91
2022-09-07T13:01:09.473Z,64.44
2022-09-07T13:04:03.821Z,64.72
2022-09-07T13:07:05.572Z,64.83
2022-09-07T13:09:34.228Z,64.75
2022-09-07T13:15:14.614Z,65.47
2022-09-07T13:17:56.080Z,66.05
2022-09-07T13:20:30.319Z,66.63
2022-09-07T13:23:19.058Z,66.98
2022-09-07T13:25:50.188Z,67.46
2022-09-07T13:28:42.063Z,67.13
2022-09-07T13:31:34.377Z,66.79
2022-09-07T13:34:01.392Z,67.99
2022-09-07T13:36:48.374Z,68.38
2022-09-07T13:39:20.701Z,68.51
2022-09-07T13:41:53.335Z,68.93
2022-09-07T13:44:26.580Z,69.39
2022-09-07T13:47:00.301Z,69.04
2022-09-07T13:49:33.253Z,69.09
2022-09-07T13:52:17.441Z,69.93
2022-09-07T13:54:53.585Z,70.54
2022-09-07T13:57:28.736Z,70.54
2022-09-07T13:59:57.143Z,70.87
2022-09-07T14:02:29.612Z,70.84
2022-09-07T14:05:00.442Z,70.75
2022-09-07T14:07:30.966Z,70.36
2022-09-07T14:10:16.385Z,70.19
2022-09-07T14:12:51.636Z,69.29
2022-09-07T14:15:39.408Z,69.05
2022-09-07T14:18:12.816Z,69.61
2022-09-07T14:20:51.471Z,69.76
2022-09-07T14:23:28.164Z,69.39
2022-09-07T14:26:22.732Z,69.25
2022-09-07T14:28:52.455Z,69.02
2022-09-07T14:31:21.584Z,69.74
2022-09-07T14:33:57.049Z,69.19
2022-09-07T14:36:46.062Z,69.05
2022-09-07T14:39:15.746Z,68.66
2022-09-07T14:44:31.398Z,67.68
2022-09-07T14:47:03.562Z,67.62
2022-09-07T14:49:33.495Z,67.37
2022-09-07T14:52:00.894Z,67.61
2022-09-07T14:54:34.281Z,67.65
2022-09-07T14:57:26.006Z,67.49
2022-09-07T14:59:54.039Z,66.56
2022-09-07T15:02:30.081Z,67.29
2022-09-07T15:05:15.375Z,67.67
2022-09-07T15:07:48.158Z,67.54
2022-09-07T15:10:21.151Z,67.38
2022-09-07T15:12:53.973Z,67.13
2022-09-07T15:15:33.466Z,66.78
2022-09-07T15:18:09.152Z,66.75
2022-09-07T15:20:40.375Z,67.06
2022-09-07T15:23:16.454Z,67.08
2022-09-07T15:25:50.318Z,67.59
2022-09-07T15:34:14.382Z,66.86
2022-09-07T15:36:43.945Z,66.77
2022-09-07T15:39:25.760Z,66.44
2022-09-07T15:41:53.030Z,67.00
2022-09-07T15:44:25.034Z,67.37
2022-09-07T15:49:47.422Z,67.35
2022-09-07T15:52:18.017Z,67.96
2022-09-07T15:54:54.036Z,66.98
2022-09-07T16:00:09.008Z,67.54
2022-09-07T16:05:44.479Z,67.77
2022-09-07T16:08:32.714Z,68.47
2022-09-07T16:11:18.455Z,68.28
2022-09-07T16:13:48.150Z,68.09
2022-09-07T16:16:16.020Z,68.42
2022-09-07T16:18:46.731Z,68.65
2022-09-07T16:21:15.350Z,68.57
2022-09-07T16:23:47.299Z,69.17
2022-09-07T16:26:15.906Z,68.85
2022-09-07T16:28:50.571Z,69.14
2022-09-07T16:31:21.458Z,69.41
2022-09-07T16:33:51.636Z,69.59
2022-09-07T16:36:23.701Z,69.13
2022-09-07T16:38:58.000Z,69.26
2022-09-07T16:41:29.438Z,69.01
2022-09-07T16:43:56.715Z,69.44
2022-09-07T16:46:26.651Z,69.63
2022-09-07T16:48:53.929Z,69.73
2022-09-07T16:51:22.818Z,69.18
2022-09-07T16:53:53.063Z,69.41
2022-09-07T16:56:23.335Z,69.53
2022-09-07T16:58:56.723Z,69.25
2022-09-07T17:01:27.113Z,69.21
2022-09-07T17:03:54.484Z,69.57
2022-09-07T17:06:24.920Z,69.56
2022-09-07T17:08:53.492Z,69.38
2022-09-07T17:11:23.570Z,69.77
2022-09-07T17:13:51.690Z,69.89
2022-09-07T17:16:24.494Z,69.63
2022-09-07T17:21:40.304Z,69.75
2022-09-07T17:24:10.470Z,69.39
2022-09-07T17:26:38.110Z,69.61
2022-09-07T17:29:07.503Z,69.58
2022-09-07T17:34:24.306Z,69.65
2022-09-07T17:36:51.686Z,69.62
2022-09-07T17:39:24.830Z,69.56
2022-09-07T17:41:53.219Z,69.17
2022-09-07T17:44:21.899Z,69.25
2022-09-07T17:46:53.851Z,68.57
2022-09-07T17:49:21.173Z,68.90
2022-09-07T17:51:48.384Z,68.71
2022-09-07T17:54:17.744Z,68.52
2022-09-07T17:56:46.367Z,68.44
2022-09-07T18:02:01.270Z,68.72
2022-09-07T18:04:29.232Z,68.81
2022-09-07T18:06:56.604Z,69.28
2022-09-07T18:09:26.506Z,69.63
2022-09-07T18:11:56.254Z,69.29
2022-09-07T18:14:25.890Z,69.61
2022-09-07T18:16:54.596Z,69.86
2022-09-07T18:19:21.824Z,70.39
2022-09-07T18:21:49.285Z,70.25
2022-09-07T18:24:22.261Z,70.16
2022-09-07T18:26:52.257Z,70.40
2022-09-07T18:29:29.954Z,70.24
2022-09-07T18:31:59.185Z,70.88
2022-09-07T18:34:26.500Z,70.78
2022-09-07T18:36:53.838Z,70.35
2022-09-07T18:39:22.983Z,70.34
2022-09-07T18:41:50.046Z,70.78
2022-09-07T18:47:08.943Z,70.74
2022-09-07T18:49:37.679Z,70.92
2022-09-07T18:55:15.870Z,71.00
2022-09-07T18:57:42.919Z,71.46
2022-09-07T19:00:12.550Z,72.19
2022-09-07T19:02:39.655Z,72.13
2022-09-07T19:07:54.428Z,72.00
2022-09-07T19:10:21.579Z,72.26
2022-09-07T19:12:49.312Z,72.28
2022-09-07T19:15:17.436Z,71.69
2022-09-07T19:17:47.448Z,71.58
2022-09-07T19:20:30.311Z,71.33
2022-09-07T19:22:57.234Z,71.72
2022-09-07T19:25:24.597Z,71.87
2022-09-07T19:27:51.812Z,71.77
2022-09-07T19:30:26.538Z,71.76
2022-09-07T19:32:54.076Z,71.79
2022-09-07T19:35:21.075Z,72.00
2022-09-07T19:37:49.034Z,71.60
2022-09-07T19:40:21.841Z,71.48
2022-09-07T19:42:57.727Z,71.60
2022-09-07T19:45:25.032Z,71.93
2022-09-07T19:47:53.189Z,71.72
2022-09-07T19:50:22.270Z,71.71
2022-09-07T19:52:49.537Z,71.94
2022-09-07T19:55:16.845Z,72.86
2022-09-07T19:57:47.624Z,72.51
2022-09-07T20:00:15.034Z,72.09
2022-09-07T20:02:42.412Z,71.84
2022-09-07T20:05:09.563Z,72.28
2022-09-07T20:07:36.475Z,71.54
2022-09-07T20:10:03.945Z,71.93
2022-09-07T20:12:31.047Z,70.85
2022-09-07T20:14:58.117Z,71.51
2022-09-07T20:17:25.092Z,71.26
2022-09-07T20:19:52.130Z,71.27
2022-09-07T20:22:19.264Z,71.37
2022-09-07T20:24:49.010Z,71.17
2022-09-07T20:27:16.110Z,71.06
2022-09-07T20:29:43.106Z,70.92
2022-09-07T20:32:11.042Z,71.17
2022-09-07T20:34:38.208Z,70.79
2022-09-07T20:37:05.757Z,70.98
2022-09-07T20:39:36.988Z,70.93
2022-09-07T20:42:06.764Z,71.12
2022-09-07T20:44:33.936Z,71.07
2022-09-07T20:47:03.291Z,71.30
2022-09-07T20:49:30.308Z,71.39
2022-09-07T20:51:57.318Z,71.52
2022-09-07T20:54:24.458Z,72.13
2022-09-07T20:56:51.912Z,72.24
2022-09-07T20:59:19.193Z,72.20
2022-09-07T21:01:46.821Z,71.90
2022-09-07T21:04:13.906Z,72.29
2022-09-07T21:06:41.009Z,72.35
2022-09-07T21:09:08.241Z,72.32
2022-09-07T21:11:37.748Z,72.46
2022-09-07T21:14:13.177Z,72.45
2022-09-07T21:16:40.957Z,73.14
2022-09-07T21:19:11.096Z,73.00
2022-09-07T21:21:40.516Z,73.28
2022-09-07T21:24:16.325Z,74.31
2022-09-07T21:26:43.269Z,73.49
2022-09-07T21:29:15.494Z,73.30
2022-09-07T21:31:42.780Z,73.61
2022-09-07T21:34:10.636Z,73.34
2022-09-07T21:36:37.788Z,73.32
2022-09-07T21:39:05.250Z,72.97
2022-09-07T21:41:32.529Z,72.97
2022-09-07T21:44:01.603Z,72.98
2022-09-07T21:46:32.917Z,72.73
2022-09-07T21:49:04.788Z,72.76
2022-09-07T21:51:32.096Z,72.92
2022-09-07T21:54:05.280Z,72.48
2022-09-07T21:56:32.388Z,72.50
2022-09-07T21:59:02.085Z,72.57
2022-09-07T22:01:30.603Z,71.92
2022-09-07T22:04:00.697Z,72.42
2022-09-07T22:06:28.982Z,72.85
2022-09-07T22:08:56.174Z,72.25
2022-09-07T22:11:24.847Z,71.88
2022-09-07T22:13:56.238Z,72.42
2022-09-07T22:16:24.043Z,72.05
2022-09-07T22:18:51.230Z,72.23
2022-09-07T22:21:21.118Z,72.64
2022-09-07T22:23:51.264Z,72.30
2022-09-07T22:26:20.979Z,72.63
2022-09-07T22:28:48.779Z,71.97
2022-09-07T22:31:25.119Z,71.92
2022-09-07T22:33:56.451Z,72.00
2022-09-07T22:36:28.483Z,72.42
2022-09-07T22:38:57.920Z,72.50
2022-09-07T22:41:28.227Z,72.06
2022-09-07T22:43:56.162Z,72.18
2022-09-07T22:46:26.094Z,72.34
2022-09-07T22:48:55.095Z,72.49
2022-09-07T22:51:23.269Z,71.99
2022-09-07T22:53:53.579Z,72.02
2022-09-07T22:56:24.864Z,71.65
2022-09-07T22:58:58.145Z,71.60
2022-09-07T23:01:26.610Z,71.21
2022-09-07T23:03:54.334Z,71.62
2022-09-07T23:06:29.612Z,71.60
2022-09-07T23:09:02.685Z,72.03
2022-09-07T23:11:29.931Z,72.16
2022-09-07T23:14:00.198Z,71.67
2022-09-07T23:16:29.199Z,71.99
2022-09-07T23:18:58.540Z,72.13
2022-09-07T23:21:27.302Z,71.79
2022-09-07T23:23:56.974Z,71.46
2022-09-07T23:26:25.800Z,71.69
2022-09-07T23:28:53.884Z,71.45
2022-09-07T23:31:22.350Z,71.19
2022-09-07T23:33:49.855Z,71.45
2022-09-07T23:36:17.619Z,71.68
2022-09-07T23:38:45.778Z,71.66
2022-09-07T23:41:16.746Z,70.94
2022-09-07T23:43:44.307Z,71.28
2022-09-07T23:46:13.666Z,71.59
2022-09-07T23:48:42.734Z,71.60
2022-09-07T23:51:09.943Z,71.37
2022-09-07T23:53:37.287Z,71.10
2022-09-07T23:56:04.978Z,71.37
2022-09-07T23:58:31.905Z,71.48
